createdAt,value
2018-11-25T00:00:34.737Z,100648.13
2018-11-25T00:03:04.354Z,100649.52
2018-11-25T00:05:33.972Z,100653.65
2018-11-25T00:08:03.673Z,100652.64
2018-11-25T00:10:33.363Z,100651.00
2018-11-25T00:13:03.172Z,100651.98
2018-11-25T00:15:32.873Z,100652.16
2018-11-25T00:18:02.477Z,100648.47
2018-11-25T00:20:32.092Z,100647.33
2018-11-25T00:23:01.791Z,100644.05
2018-11-25T00:25:31.397Z,100638.53
2018-11-25T00:28:01.084Z,100633.89
2018-11-25T00:30:30.773Z,100634.42
2018-11-25T00:33:00.360Z,100627.91
2018-11-25T00:35:30.056Z,100628.67
2018-11-25T00:37:59.760Z,100627.26
2018-11-25T00:40:29.385Z,100625.91
2018-11-25T00:42:58.976Z,100618.02
2018-11-25T00:45:28.566Z,100617.02
2018-11-25T00:47:58.257Z,100614.25
2018-11-25T00:50:27.875Z,100617.06
2018-11-25T00:52:57.455Z,100614.27
2018-11-25T00:55:27.141Z,100603.16
2018-11-25T00:57:56.841Z,100601.95
2018-11-25T01:00:26.702Z,100611.11
2018-11-25T01:02:56.324Z,100607.88
2018-11-25T01:05:25.984Z,100615.42
2018-11-25T01:07:55.592Z,100603.25
2018-11-25T01:10:25.297Z,100604.00
2018-11-25T01:12:54.920Z,100613.03
2018-11-25T01:15:24.624Z,100612.15
2018-11-25T01:17:54.232Z,100617.31
2018-11-25T01:20:23.872Z,100614.66
2018-11-25T01:22:53.501Z,100623.75
2018-11-25T01:25:23.186Z,100622.28
2018-11-25T01:27:52.932Z,100621.02
2018-11-25T01:30:22.532Z,100620.89
2018-11-25T01:32:52.152Z,100619.09
2018-11-25T01:35:21.828Z,100618.84
2018-11-25T01:37:51.496Z,100611.27
2018-11-25T01:40:21.100Z,100614.45
2018-11-25T01:42:50.723Z,100611.55
2018-11-25T01:45:20.362Z,100612.08
2018-11-25T01:47:49.985Z,100616.89
2018-11-25T01:50:19.645Z,100619.13
2018-11-25T01:52:49.613Z,100615.25
2018-11-25T01:55:19.979Z,100613.08
2018-11-25T01:57:49.629Z,100616.07
2018-11-25T02:00:20.835Z,100613.08
2018-11-25T02:02:50.808Z,100608.33
2018-11-25T02:05:20.455Z,100603.22
2018-11-25T02:07:50.244Z,100607.22
2018-11-25T02:10:20.288Z,100604.62
2018-11-25T02:12:49.923Z,100602.87
2018-11-25T02:15:19.737Z,100587.44
2018-11-25T02:17:49.342Z,100590.84
2018-11-25T02:20:24.211Z,100587.91
2018-11-25T02:22:55.668Z,100598.79
2018-11-25T02:25:25.503Z,100601.49
2018-11-25T02:27:55.139Z,100591.34
2018-11-25T02:30:24.771Z,100605.34
2018-11-25T02:32:54.618Z,100601.52
2018-11-25T02:35:24.225Z,100591.71
2018-11-25T02:37:53.983Z,100595.70
2018-11-25T02:40:24.036Z,100593.17
2018-11-25T02:42:53.660Z,100598.05
2018-11-25T02:45:23.300Z,100596.48
2018-11-25T02:47:52.918Z,100591.13
2018-11-25T02:50:28.293Z,100591.27
2018-11-25T02:53:00.837Z,100578.41
2018-11-25T02:55:30.606Z,100557.26
2018-11-25T02:58:00.869Z,100555.01
2018-11-25T03:00:29.587Z,100548.91
2018-11-25T03:02:58.969Z,100569.09
2018-11-25T03:05:28.378Z,100575.72
2018-11-25T03:07:57.798Z,100568.09
2018-11-25T03:10:27.257Z,100570.05
2018-11-25T03:12:56.657Z,100563.41
2018-11-25T03:15:26.206Z,100565.75
2018-11-25T03:17:55.609Z,100564.66
2018-11-25T03:20:25.008Z,100561.83
2018-11-25T03:22:55.403Z,100558.06
2018-11-25T03:25:24.794Z,100565.81
2018-11-25T03:27:54.434Z,100557.67
2018-11-25T03:30:24.049Z,100561.96
2018-11-25T03:32:54.477Z,100567.55
2018-11-25T03:35:23.950Z,100565.41
2018-11-25T03:37:53.533Z,100562.30
2018-11-25T03:40:22.951Z,100551.91
2018-11-25T03:42:52.399Z,100551.14
2018-11-25T03:45:22.632Z,100546.79
2018-11-25T03:47:52.031Z,100556.19
2018-11-25T03:50:21.421Z,100560.06
2018-11-25T03:52:50.942Z,100565.23
2018-11-25T03:55:20.360Z,100568.70
2018-11-25T03:57:49.859Z,100564.47
2018-11-25T04:00:23.592Z,100567.93
2018-11-25T04:02:55.041Z,100562.35
2018-11-25T04:05:24.485Z,100567.59
2018-11-25T04:07:53.884Z,100571.64
2018-11-25T04:10:30.139Z,100567.47
2018-11-25T04:12:59.556Z,100547.78
2018-11-25T04:15:29.000Z,100542.63
2018-11-25T04:17:58.426Z,100540.92
2018-11-25T04:20:27.816Z,100542.63
2018-11-25T04:22:57.289Z,100542.22
2018-11-25T04:25:26.703Z,100540.09
2018-11-25T04:27:56.121Z,100541.78
2018-11-25T04:30:25.512Z,100533.56
2018-11-25T04:32:54.937Z,100523.70
2018-11-25T04:35:24.329Z,100523.70
2018-11-25T04:37:53.772Z,100531.46
2018-11-25T04:40:23.414Z,100528.87
2018-11-25T04:42:52.889Z,100530.58
2018-11-25T04:45:22.326Z,100533.97
2018-11-25T04:47:51.758Z,100537.44
2018-11-25T04:50:22.302Z,100534.85
2018-11-25T04:52:51.746Z,100537.05
2018-11-25T04:55:21.234Z,100538.39
2018-11-25T04:57:51.674Z,100539.73
2018-11-25T05:00:21.309Z,100536.33
2018-11-25T05:02:51.793Z,100537.20
2018-11-25T05:05:21.357Z,100535.50
2018-11-25T05:07:50.783Z,100533.38
2018-11-25T05:10:20.217Z,100536.38
2018-11-25T05:12:49.613Z,100535.61
2018-11-25T05:15:21.595Z,100539.08
2018-11-25T05:17:51.527Z,100545.59
2018-11-25T05:20:21.523Z,100534.84
2018-11-25T05:22:50.989Z,100542.18
2018-11-25T05:25:20.951Z,100539.54
2018-11-25T05:27:50.377Z,100536.08
2018-11-25T05:30:21.098Z,100528.37
2018-11-25T05:32:50.542Z,100529.77
2018-11-25T05:35:21.545Z,100529.80
2018-11-25T05:37:51.234Z,100532.37
2018-11-25T05:40:20.669Z,100528.14
2018-11-25T05:42:50.081Z,100529.38
2018-11-25T05:45:20.565Z,100525.91
2018-11-25T05:47:49.998Z,100529.36
2018-11-25T05:50:20.102Z,100530.67
2018-11-25T05:52:49.557Z,100529.38
2018-11-25T05:55:18.979Z,100536.72
2018-11-25T05:57:48.420Z,100531.09
2018-11-25T06:00:38.326Z,100525.89
2018-11-25T06:03:07.876Z,100534.06
2018-11-25T06:05:37.282Z,100530.66
2018-11-25T06:08:07.033Z,100538.41
2018-11-25T06:10:36.416Z,100549.19
2018-11-25T06:13:06.002Z,100549.70
2018-11-25T06:15:35.414Z,100549.77
2018-11-25T06:18:04.829Z,100538.13
2018-11-25T06:20:34.237Z,100546.81
2018-11-25T06:23:04.077Z,100542.58
2018-11-25T06:25:33.481Z,100543.09
2018-11-25T06:28:02.942Z,100543.22
2018-11-25T06:30:32.688Z,100547.31
2018-11-25T06:33:02.233Z,100543.17
2018-11-25T06:35:31.755Z,100543.66
2018-11-25T06:38:01.306Z,100545.00
2018-11-25T06:40:30.701Z,100548.88
2018-11-25T06:43:00.134Z,100543.70
2018-11-25T06:45:31.470Z,100542.00
2018-11-25T06:48:00.870Z,100546.30
2018-11-25T06:50:30.321Z,100543.70
2018-11-25T06:52:59.808Z,100536.36
2018-11-25T06:55:29.209Z,100539.76
2018-11-25T06:57:58.610Z,100544.00
2018-11-25T07:00:28.074Z,100542.70
2018-11-25T07:02:57.474Z,100545.70
2018-11-25T07:05:26.875Z,100545.70
2018-11-25T07:07:56.307Z,100547.53
2018-11-25T07:10:25.697Z,100546.34
2018-11-25T07:13:13.360Z,100556.84
2018-11-25T07:15:42.737Z,100555.66
2018-11-25T07:18:12.137Z,100553.59
2018-11-25T07:20:41.609Z,100555.30
2018-11-25T07:23:11.006Z,100560.88
2018-11-25T07:25:40.442Z,100566.48
2018-11-25T07:28:18.485Z,100570.72
2018-11-25T07:30:39.389Z,100571.13
2018-11-25T07:33:08.900Z,100576.36
2018-11-25T07:35:38.446Z,100579.00
2018-11-25T07:38:07.846Z,100583.81
2018-11-25T07:40:37.313Z,100589.42
2018-11-25T07:43:07.237Z,100584.30
2018-11-25T07:45:36.605Z,100583.94
2018-11-25T07:48:06.376Z,100579.17
2018-11-25T07:50:35.994Z,100572.39
2018-11-25T07:53:05.507Z,100583.31
2018-11-25T07:55:34.881Z,100579.11
2018-11-25T07:58:04.302Z,100583.12
2018-11-25T08:00:33.733Z,100576.33
2018-11-25T08:03:03.176Z,100578.97
2018-11-25T08:05:32.830Z,100577.27
2018-11-25T08:08:02.231Z,100580.68
2018-11-25T08:10:31.628Z,100582.48
2018-11-25T08:13:01.116Z,100588.55
2018-11-25T08:15:30.513Z,100585.61
2018-11-25T08:17:59.976Z,100592.65
2018-11-25T08:20:29.430Z,100593.11
2018-11-25T08:22:58.915Z,100590.63
2018-11-25T08:25:28.319Z,100582.91
2018-11-25T08:27:57.852Z,100585.08
2018-11-25T08:30:27.259Z,100581.61
2018-11-25T08:32:56.732Z,100579.48
2018-11-25T08:35:26.282Z,100574.84
2018-11-25T08:37:55.727Z,100565.45
2018-11-25T08:40:26.028Z,100558.81
2018-11-25T08:42:55.428Z,100560.72
2018-11-25T08:45:24.865Z,100559.19
2018-11-25T08:47:54.260Z,100558.03
2018-11-25T08:50:23.701Z,100563.37
2018-11-25T08:52:53.816Z,100570.03
2018-11-25T08:55:26.216Z,100571.11
2018-11-25T08:57:56.073Z,100568.79
2018-11-25T09:00:27.151Z,100575.46
2018-11-25T09:02:57.360Z,100571.39
2018-11-25T09:05:26.938Z,100570.31
2018-11-25T09:07:56.353Z,100576.19
2018-11-25T09:10:25.797Z,100569.09
2018-11-25T09:12:57.738Z,100568.30
2018-11-25T09:15:29.163Z,100570.94
2018-11-25T09:17:58.800Z,100570.94
2018-11-25T09:20:28.241Z,100570.06
2018-11-25T09:22:57.930Z,100571.36
2018-11-25T09:25:30.337Z,100566.67
2018-11-25T09:28:01.513Z,100568.14
2018-11-25T09:30:32.456Z,100567.94
2018-11-25T09:33:02.102Z,100574.30
2018-11-25T09:35:31.547Z,100575.05
2018-11-25T09:38:00.949Z,100571.88
2018-11-25T09:40:30.547Z,100571.51
2018-11-25T09:43:00.642Z,100576.32
2018-11-25T09:45:30.069Z,100574.68
2018-11-25T09:48:01.070Z,100579.49
2018-11-25T09:50:30.526Z,100578.11
2018-11-25T09:52:59.934Z,100578.88
2018-11-25T09:55:29.336Z,100583.11
2018-11-25T09:58:01.226Z,100577.42
2018-11-25T10:00:35.245Z,100578.59
2018-11-25T10:03:06.621Z,100576.42
2018-11-25T10:05:36.080Z,100570.84
2018-11-25T10:08:05.502Z,100568.67
2018-11-25T10:10:34.993Z,100565.20
2018-11-25T10:13:04.501Z,100572.98
2018-11-25T10:15:33.894Z,100570.02
2018-11-25T10:18:03.287Z,100576.12
2018-11-25T10:20:33.502Z,100568.87
2018-11-25T10:23:02.895Z,100565.81
2018-11-25T10:25:32.316Z,100572.31
2018-11-25T10:28:01.865Z,100572.77
2018-11-25T10:30:31.864Z,100568.91
2018-11-25T10:33:04.416Z,100565.97
2018-11-25T10:35:33.905Z,100559.56
2018-11-25T10:38:03.373Z,100560.52
2018-11-25T10:40:32.781Z,100560.09
2018-11-25T10:43:02.178Z,100561.85
2018-11-25T10:45:31.618Z,100559.75
2018-11-25T10:48:01.175Z,100551.54
2018-11-25T10:50:30.566Z,100552.91
2018-11-25T10:52:59.995Z,100551.72
2018-11-25T10:55:29.574Z,100552.64
2018-11-25T10:57:58.961Z,100558.75
2018-11-25T11:00:36.230Z,100555.73
2018-11-25T11:03:12.935Z,100555.20
2018-11-25T11:05:47.433Z,100556.92
2018-11-25T11:08:16.965Z,100552.56
2018-11-25T11:10:46.371Z,100552.98
2018-11-25T11:13:15.767Z,100555.13
2018-11-25T11:15:45.295Z,100550.35
2018-11-25T11:18:14.776Z,100549.59
2018-11-25T11:20:44.206Z,100552.60
2018-11-25T11:23:13.687Z,100558.64
2018-11-25T11:25:43.088Z,100562.84
2018-11-25T11:28:12.453Z,100556.23
2018-11-25T11:30:41.851Z,100569.98
2018-11-25T11:33:11.227Z,100556.77
2018-11-25T11:35:40.832Z,100555.81
2018-11-25T11:38:10.244Z,100558.75
2018-11-25T11:40:39.705Z,100549.55
2018-11-25T11:43:09.069Z,100550.30
2018-11-25T11:45:38.475Z,100547.20
2018-11-25T11:48:07.962Z,100548.05
2018-11-25T11:50:37.360Z,100548.58
2018-11-25T11:53:07.777Z,100559.93
2018-11-25T11:55:37.181Z,100553.48
2018-11-25T11:58:06.785Z,100552.67
2018-11-25T12:00:36.195Z,100550.00
2018-11-25T12:03:06.098Z,100545.16
2018-11-25T12:05:37.457Z,100554.19
2018-11-25T12:08:07.529Z,100555.79
2018-11-25T12:10:36.929Z,100555.63
2018-11-25T12:13:07.370Z,100550.77
2018-11-25T12:15:36.766Z,100548.05
2018-11-25T12:18:07.529Z,100556.67
2018-11-25T12:20:36.958Z,100556.63
2018-11-25T12:23:08.104Z,100550.56
2018-11-25T12:25:37.572Z,100553.13
2018-11-25T12:28:07.816Z,100551.36
2018-11-25T12:30:37.295Z,100551.86
2018-11-25T12:33:06.942Z,100550.56
2018-11-25T12:35:36.350Z,100551.78
2018-11-25T12:38:06.620Z,100549.98
2018-11-25T12:40:36.025Z,100553.33
2018-11-25T12:43:05.729Z,100549.77
2018-11-25T12:45:35.138Z,100543.62
2018-11-25T12:48:04.562Z,100544.45
2018-11-25T12:50:33.942Z,100540.55
2018-11-25T12:53:03.351Z,100547.08
2018-11-25T12:55:32.857Z,100544.03
2018-11-25T12:58:02.311Z,100547.51
2018-11-25T13:00:40.706Z,100555.80
2018-11-25T13:03:12.006Z,100544.54
2018-11-25T13:05:45.917Z,100549.67
2018-11-25T13:08:12.654Z,100539.97
2018-11-25T13:10:42.290Z,100539.88
2018-11-25T13:13:12.576Z,100536.79
2018-11-25T13:15:42.002Z,100542.34
2018-11-25T13:18:11.617Z,100531.92
2018-11-25T13:20:41.106Z,100527.63
2018-11-25T13:23:10.506Z,100530.27
2018-11-25T13:25:39.943Z,100538.97
2018-11-25T13:28:09.456Z,100539.75
2018-11-25T13:30:38.866Z,100525.78
2018-11-25T13:33:08.758Z,100532.59
2018-11-25T13:35:40.004Z,100528.16
2018-11-25T13:38:09.602Z,100528.16
2018-11-25T13:40:39.005Z,100532.13
2018-11-25T13:43:08.679Z,100532.17
2018-11-25T13:45:38.121Z,100532.17
2018-11-25T13:48:08.267Z,100533.01
2018-11-25T13:50:37.746Z,100529.03
2018-11-25T13:53:07.757Z,100522.54
2018-11-25T13:55:37.137Z,100522.91
2018-11-25T13:58:06.961Z,100514.68
2018-11-25T14:00:42.409Z,100514.72
2018-11-25T14:03:17.737Z,100517.36
2018-11-25T14:05:53.066Z,100510.00
2018-11-25T14:08:16.507Z,100514.34
2018-11-25T14:10:45.918Z,100511.75
2018-11-25T14:13:15.483Z,100517.78
2018-11-25T14:15:44.976Z,100509.17
2018-11-25T14:18:14.376Z,100507.04
2018-11-25T14:20:44.239Z,100516.48
2018-11-25T14:23:13.695Z,100520.42
2018-11-25T14:25:43.069Z,100516.95
2018-11-25T14:28:14.757Z,100515.66
2018-11-25T14:30:44.264Z,100512.17
2018-11-25T14:33:13.664Z,100508.70
2018-11-25T14:35:43.076Z,100518.19
2018-11-25T14:38:12.479Z,100525.13
2018-11-25T14:40:41.980Z,100519.53
2018-11-25T14:43:11.622Z,100522.97
2018-11-25T14:45:41.296Z,100519.13
2018-11-25T14:48:10.682Z,100525.23
2018-11-25T14:50:40.245Z,100527.82
2018-11-25T14:53:09.694Z,100528.66
2018-11-25T14:55:39.094Z,100528.20
2018-11-25T14:58:08.502Z,100532.49
2018-11-25T15:00:37.868Z,100533.79
2018-11-25T15:03:08.545Z,100538.89
2018-11-25T15:05:44.106Z,100544.45
2018-11-25T15:08:21.149Z,100542.69
2018-11-25T15:10:50.570Z,100548.29
2018-11-25T15:13:19.970Z,100545.66
2018-11-25T15:15:49.800Z,100558.57
2018-11-25T15:18:19.347Z,100542.05
2018-11-25T15:20:48.801Z,100554.53
2018-11-25T15:23:18.206Z,100553.15
2018-11-25T15:25:53.515Z,100546.53
2018-11-25T15:28:22.907Z,100554.68
2018-11-25T15:30:52.355Z,100554.22
2018-11-25T15:33:21.776Z,100557.73
2018-11-25T15:35:51.168Z,100560.78
2018-11-25T15:38:20.664Z,100564.26
2018-11-25T15:40:50.099Z,100557.36
2018-11-25T15:43:19.471Z,100561.34
2018-11-25T15:45:48.863Z,100561.76
2018-11-25T15:48:29.065Z,100551.34
2018-11-25T15:50:58.538Z,100556.99
2018-11-25T15:53:27.939Z,100563.47
2018-11-25T15:56:00.343Z,100560.41
2018-11-25T15:58:29.828Z,100560.05
2018-11-25T16:00:59.264Z,100561.39
2018-11-25T16:03:28.761Z,100560.13
2018-11-25T16:06:03.453Z,100558.42
2018-11-25T16:08:38.045Z,100560.59
2018-11-25T16:11:02.290Z,100563.62
2018-11-25T16:13:31.762Z,100568.80
2018-11-25T16:16:01.225Z,100566.25
2018-11-25T16:18:30.825Z,100564.08
2018-11-25T16:21:00.287Z,100562.41
2018-11-25T16:23:29.729Z,100568.06
2018-11-25T16:26:03.184Z,100565.92
2018-11-25T16:28:36.910Z,100565.88
2018-11-25T16:31:06.898Z,100566.80
2018-11-25T16:33:36.439Z,100570.28
2018-11-25T16:36:06.274Z,100564.26
2018-11-25T16:38:35.796Z,100560.38
2018-11-25T16:41:05.990Z,100572.41
2018-11-25T16:43:35.608Z,100570.19
2018-11-25T16:46:05.077Z,100574.91
2018-11-25T16:48:34.505Z,100574.86
2018-11-25T16:51:04.002Z,100570.56
2018-11-25T16:53:33.394Z,100568.43
2018-11-25T16:56:02.779Z,100571.39
2018-11-25T16:58:32.200Z,100572.22
2018-11-25T17:01:01.791Z,100573.38
2018-11-25T17:03:31.078Z,100561.16
2018-11-25T17:06:00.664Z,100567.55
2018-11-25T17:08:36.635Z,100569.25
2018-11-25T17:11:07.104Z,100570.95
2018-11-25T17:13:36.664Z,100579.98
2018-11-25T17:16:07.425Z,100578.69
2018-11-25T17:18:37.489Z,100579.00
2018-11-25T17:21:06.898Z,100575.91
2018-11-25T17:23:36.473Z,100579.80
2018-11-25T17:26:06.062Z,100581.05
2018-11-25T17:28:35.471Z,100571.92
2018-11-25T17:31:04.981Z,100570.98
2018-11-25T17:33:34.420Z,100569.64
2018-11-25T17:36:03.829Z,100573.06
2018-11-25T17:38:33.260Z,100574.23
2018-11-25T17:41:02.686Z,100574.97
2018-11-25T17:43:32.194Z,100576.27
2018-11-25T17:46:01.705Z,100578.39
2018-11-25T17:48:31.179Z,100580.88
2018-11-25T17:51:00.572Z,100579.53
2018-11-25T17:53:29.990Z,100585.48
2018-11-25T17:55:59.451Z,100590.56
2018-11-25T17:58:29.067Z,100588.30
2018-11-25T18:01:04.749Z,100586.08
2018-11-25T18:03:36.282Z,100591.14
2018-11-25T18:06:06.071Z,100590.11
2018-11-25T18:08:35.482Z,100584.37
2018-11-25T18:11:05.158Z,100581.73
2018-11-25T18:13:38.003Z,100583.02
2018-11-25T18:16:09.981Z,100587.30
2018-11-25T18:18:43.166Z,100582.13
2018-11-25T18:21:17.324Z,100586.89
2018-11-25T18:23:46.810Z,100592.89
2018-11-25T18:26:16.337Z,100593.31
2018-11-25T18:28:45.801Z,100591.19
2018-11-25T18:31:15.253Z,100594.60
2018-11-25T18:33:44.726Z,100587.30
2018-11-25T18:36:15.173Z,100589.91
2018-11-25T18:38:44.938Z,100600.61
2018-11-25T18:41:14.351Z,100594.50
2018-11-25T18:43:43.755Z,100591.86
2018-11-25T18:46:13.318Z,100596.52
2018-11-25T18:48:45.969Z,100600.30
2018-11-25T18:51:15.479Z,100594.66
2018-11-25T18:53:44.863Z,100596.37
2018-11-25T18:56:14.272Z,100595.94
2018-11-25T18:58:43.809Z,100597.66
2018-11-25T19:01:24.314Z,100605.48
2018-11-25T19:03:53.781Z,100597.25
2018-11-25T19:06:23.233Z,100603.31
2018-11-25T19:08:52.751Z,100605.84
2018-11-25T19:11:22.181Z,100607.12
2018-11-25T19:13:51.803Z,100610.90
2018-11-25T19:16:21.229Z,100604.79
2018-11-25T19:18:50.874Z,100613.38
2018-11-25T19:21:20.258Z,100613.28
2018-11-25T19:23:49.681Z,100615.86
2018-11-25T19:26:19.116Z,100621.92
2018-11-25T19:28:48.585Z,100619.84
2018-11-25T19:31:17.986Z,100612.61
2018-11-25T19:33:47.412Z,100619.55
2018-11-25T19:36:16.893Z,100617.42
2018-11-25T19:38:46.297Z,100623.06
2018-11-25T19:41:15.696Z,100617.08
2018-11-25T19:43:45.098Z,100615.83
2018-11-25T19:46:14.495Z,100613.30
2018-11-25T19:48:43.905Z,100613.25
2018-11-25T19:51:17.568Z,100619.25
2018-11-25T19:53:42.729Z,100612.31
2018-11-25T19:56:12.207Z,100621.38
2018-11-25T19:58:41.625Z,100619.66
2018-11-25T20:01:11.023Z,100620.53
2018-11-25T20:03:40.420Z,100625.23
2018-11-25T20:06:09.820Z,100625.08
2018-11-25T20:08:39.291Z,100632.33
2018-11-25T20:11:08.729Z,100630.15
2018-11-25T20:13:38.155Z,100635.69
2018-11-25T20:16:12.744Z,100638.15
2018-11-25T20:18:42.480Z,100626.70
2018-11-25T20:21:16.672Z,100630.37
2018-11-25T20:23:46.087Z,100629.41
2018-11-25T20:26:15.498Z,100631.38
2018-11-25T20:28:44.893Z,100638.25
2018-11-25T20:31:14.286Z,100635.20
2018-11-25T20:33:52.327Z,100630.02
2018-11-25T20:36:18.498Z,100627.85
2018-11-25T20:38:53.161Z,100634.67
2018-11-25T20:41:22.583Z,100633.38
2018-11-25T20:43:52.057Z,100642.44
2018-11-25T20:46:26.666Z,100642.44
2018-11-25T20:48:56.052Z,100638.55
2018-11-25T20:51:30.970Z,100634.63
2018-11-25T20:54:01.014Z,100646.73
2018-11-25T20:56:30.418Z,100650.61
2018-11-25T20:58:59.993Z,100658.83
2018-11-25T21:01:29.477Z,100652.84
2018-11-25T21:03:58.847Z,100648.44
2018-11-25T21:06:28.514Z,100649.31
2018-11-25T21:08:57.991Z,100653.19
2018-11-25T21:11:27.381Z,100652.31
2018-11-25T21:13:56.802Z,100643.19
2018-11-25T21:16:26.315Z,100642.60
2018-11-25T21:18:55.720Z,100643.43
2018-11-25T21:21:25.134Z,100629.62
2018-11-25T21:23:54.809Z,100631.38
2018-11-25T21:26:24.217Z,100643.48
2018-11-25T21:28:53.805Z,100649.59
2018-11-25T21:31:23.212Z,100634.08
2018-11-25T21:33:52.618Z,100637.43
2018-11-25T21:36:22.176Z,100640.90
2018-11-25T21:38:51.558Z,100647.77
2018-11-25T21:41:20.952Z,100639.14
2018-11-25T21:43:50.377Z,100639.08
2018-11-25T21:46:19.758Z,100642.60
2018-11-25T21:48:49.173Z,100641.72
2018-11-25T21:51:18.690Z,100632.62
2018-11-25T21:53:48.101Z,100642.14
2018-11-25T21:56:17.622Z,100643.48
2018-11-25T21:58:47.120Z,100639.14
2018-11-25T22:01:16.546Z,100642.96
2018-11-25T22:03:45.957Z,100645.95
2018-11-25T22:06:15.408Z,100647.66
2018-11-25T22:08:44.853Z,100640.84
2018-11-25T22:11:14.241Z,100646.89
2018-11-25T22:13:43.737Z,100649.42
2018-11-25T22:16:13.193Z,100663.53
2018-11-25T22:18:42.595Z,100658.25
2018-11-25T22:21:12.152Z,100650.44
2018-11-25T22:23:41.590Z,100658.64
2018-11-25T22:26:10.990Z,100662.12
2018-11-25T22:28:40.442Z,100662.55
2018-11-25T22:31:09.840Z,100656.08
2018-11-25T22:33:39.234Z,100658.72
2018-11-25T22:36:08.773Z,100654.54
2018-11-25T22:38:38.196Z,100652.37
2018-11-25T22:41:07.594Z,100651.44
2018-11-25T22:43:37.174Z,100655.25
2018-11-25T22:46:07.033Z,100659.95
2018-11-25T22:48:36.468Z,100653.77
2018-11-25T22:51:06.218Z,100638.97
2018-11-25T22:55:04.707Z,100646.61
2018-11-25T22:57:34.301Z,100645.53
2018-11-25T23:00:03.822Z,100636.90
2018-11-25T23:02:33.311Z,100644.59
2018-11-25T23:06:18.498Z,100645.48
2018-11-25T23:08:47.980Z,100650.95
2018-11-25T23:11:17.479Z,100644.72
2018-11-25T23:13:46.928Z,100639.91
2018-11-25T23:16:16.347Z,100642.47
2018-11-25T23:18:45.785Z,100653.22
2018-11-25T23:21:15.237Z,100663.91
2018-11-25T23:23:44.787Z,100656.63
2018-11-25T23:26:14.440Z,100656.21
2018-11-25T23:28:43.879Z,100663.44
2018-11-25T23:31:13.301Z,100658.73
2018-11-25T23:33:42.969Z,100657.33
2018-11-25T23:36:12.398Z,100655.50
2018-11-25T23:38:41.818Z,100659.80
2018-11-25T23:41:11.365Z,100661.02
2018-11-25T23:43:40.793Z,100657.03
2018-11-25T23:46:10.236Z,100650.08
2018-11-25T23:48:39.892Z,100647.25
2018-11-25T23:51:09.370Z,100651.63
2018-11-25T23:53:38.905Z,100639.17
2018-11-25T23:56:08.517Z,100642.66
2018-11-25T23:58:37.962Z,100640.02
